Terminal Aerodrome Forecast
Issued by NWS Grand Forks, ND

Home | Current Version | Previous Version | Text Only | Print | Product List | Glossary On
Versions: 1 2 3 4 5 6 7 8 9 10 11 12 13 14 15
000
FTUS43 KFGF 231728
TAFGFK
TAF
KGFK 231728Z 2318/2418 26010KT P6SM OVC025
      TEMPO 2318/2321 OVC035
     FM240600 21005KT P6SM BKN030
     FM241300 VRB06KT 5SM BR OVC040
     FM241500 VRB03KT 4SM BR OVC015=

USA.gov is the U.S. government's official web portal to all federal, state and local government web resources and services.